sensor_id;sensor_type;location;lat;lon;timestamp;temperature;humidity
46932;DHT22;32670;51.464;11.964;2024-02-14T00:01:55;22.50;49.80
46932;DHT22;32670;51.464;11.964;2024-02-14T00:04:20;22.50;50.00
46932;DHT22;32670;51.464;11.964;2024-02-14T00:06:46;22.50;50.00
46932;DHT22;32670;51.464;11.964;2024-02-14T00:09:12;22.50;50.00
46932;DHT22;32670;51.464;11.964;2024-02-14T00:11:37;22.50;50.20
46932;DHT22;32670;51.464;11.964;2024-02-14T00:14:03;22.50;50.20
46932;DHT22;32670;51.464;11.964;2024-02-14T00:16:29;22.50;50.10
46932;DHT22;32670;51.464;11.964;2024-02-14T00:18:57;22.60;50.40
46932;DHT22;32670;51.464;11.964;2024-02-14T00:21:23;22.50;50.50
46932;DHT22;32670;51.464;11.964;2024-02-14T00:23:49;22.50;51.10
46932;DHT22;32670;51.464;11.964;2024-02-14T00:26:15;22.50;50.50
46932;DHT22;32670;51.464;11.964;2024-02-14T00:28:40;22.50;50.50
46932;DHT22;32670;51.464;11.964;2024-02-14T00:31:06;22.60;50.70
46932;DHT22;32670;51.464;11.964;2024-02-14T00:33:31;22.60;51.00
46932;DHT22;32670;51.464;11.964;2024-02-14T00:35:57;22.60;50.90
46932;DHT22;32670;51.464;11.964;2024-02-14T00:38:22;22.60;50.80
46932;DHT22;32670;51.464;11.964;2024-02-14T00:40:48;22.60;50.80
46932;DHT22;32670;51.464;11.964;2024-02-14T00:43:13;22.60;50.80
46932;DHT22;32670;51.464;11.964;2024-02-14T00:45:39;22.60;51.00
46932;DHT22;32670;51.464;11.964;2024-02-14T00:48:05;22.60;50.90
46932;DHT22;32670;51.464;11.964;2024-02-14T00:50:30;22.60;51.00
46932;DHT22;32670;51.464;11.964;2024-02-14T00:52:56;22.70;50.90
46932;DHT22;32670;51.464;11.964;2024-02-14T00:55:21;22.60;50.90
46932;DHT22;32670;51.464;11.964;2024-02-14T00:57:47;22.70;51.00
46932;DHT22;32670;51.464;11.964;2024-02-14T01:00:12;22.70;51.00
46932;DHT22;32670;51.464;11.964;2024-02-14T01:02:38;22.70;51.00
46932;DHT22;32670;51.464;11.964;2024-02-14T01:05:04;22.70;51.00
46932;DHT22;32670;51.464;11.964;2024-02-14T01:07:30;22.70;51.10
46932;DHT22;32670;51.464;11.964;2024-02-14T01:09:55;22.70;51.00
46932;DHT22;32670;51.464;11.964;2024-02-14T01:12:21;22.70;51.20
46932;DHT22;32670;51.464;11.964;2024-02-14T01:14:46;22.70;51.20
46932;DHT22;32670;51.464;11.964;2024-02-14T01:17:12;22.70;51.20
46932;DHT22;32670;51.464;11.964;2024-02-14T01:19:37;22.70;51.20
46932;DHT22;32670;51.464;11.964;2024-02-14T01:22:03;22.70;51.10
46932;DHT22;32670;51.464;11.964;2024-02-14T01:24:28;22.70;51.20
46932;DHT22;32670;51.464;11.964;2024-02-14T01:26:55;22.70;51.20
46932;DHT22;32670;51.464;11.964;2024-02-14T01:29:21;22.70;51.30
46932;DHT22;32670;51.464;11.964;2024-02-14T01:31:47;22.70;51.20
46932;DHT22;32670;51.464;11.964;2024-02-14T01:34:12;22.70;51.20
46932;DHT22;32670;51.464;11.964;2024-02-14T01:36:38;22.70;51.20
46932;DHT22;32670;51.464;11.964;2024-02-14T01:39:04;22.70;51.20
46932;DHT22;32670;51.464;11.964;2024-02-14T01:41:32;22.70;51.10
46932;DHT22;32670;51.464;11.964;2024-02-14T01:43:58;22.70;51.20
46932;DHT22;32670;51.464;11.964;2024-02-14T01:46:25;22.70;51.10
46932;DHT22;32670;51.464;11.964;2024-02-14T01:48:50;22.70;51.10
46932;DHT22;32670;51.464;11.964;2024-02-14T01:51:17;22.70;51.30
46932;DHT22;32670;51.464;11.964;2024-02-14T01:53:45;22.70;51.30
46932;DHT22;32670;51.464;11.964;2024-02-14T01:56:11;22.70;51.30
46932;DHT22;32670;51.464;11.964;2024-02-14T01:58:37;22.70;51.40
46932;DHT22;32670;51.464;11.964;2024-02-14T02:01:04;22.70;51.40
46932;DHT22;32670;51.464;11.964;2024-02-14T02:03:31;22.70;51.50
46932;DHT22;32670;51.464;11.964;2024-02-14T02:06:06;22.70;51.50
46932;DHT22;32670;51.464;11.964;2024-02-14T02:08:32;22.70;51.50
46932;DHT22;32670;51.464;11.964;2024-02-14T02:10:58;22.80;51.70
46932;DHT22;32670;51.464;11.964;2024-02-14T02:13:24;22.70;51.60
46932;DHT22;32670;51.464;11.964;2024-02-14T02:15:51;22.80;51.70
46932;DHT22;32670;51.464;11.964;2024-02-14T02:18:18;22.70;51.70
46932;DHT22;32670;51.464;11.964;2024-02-14T02:20:44;22.80;51.80
46932;DHT22;32670;51.464;11.964;2024-02-14T02:23:11;22.80;51.70
46932;DHT22;32670;51.464;11.964;2024-02-14T02:25:43;22.80;51.70
46932;DHT22;32670;51.464;11.964;2024-02-14T02:28:09;22.70;51.30
46932;DHT22;32670;51.464;11.964;2024-02-14T02:30:38;22.70;51.40
46932;DHT22;32670;51.464;11.964;2024-02-14T02:33:04;22.80;51.60
46932;DHT22;32670;51.464;11.964;2024-02-14T02:35:30;22.80;51.70
46932;DHT22;32670;51.464;11.964;2024-02-14T02:37:55;22.80;51.80
46932;DHT22;32670;51.464;11.964;2024-02-14T02:40:22;22.70;51.80
46932;DHT22;32670;51.464;11.964;2024-02-14T02:42:48;22.80;51.90
46932;DHT22;32670;51.464;11.964;2024-02-14T02:45:15;22.80;52.00
46932;DHT22;32670;51.464;11.964;2024-02-14T02:47:41;22.80;52.00
46932;DHT22;32670;51.464;11.964;2024-02-14T02:50:06;22.80;52.00
46932;DHT22;32670;51.464;11.964;2024-02-14T02:52:33;22.80;51.90
46932;DHT22;32670;51.464;11.964;2024-02-14T02:54:59;22.80;51.90
46932;DHT22;32670;51.464;11.964;2024-02-14T02:57:25;22.80;51.90
46932;DHT22;32670;51.464;11.964;2024-02-14T02:59:52;22.80;52.20
46932;DHT22;32670;51.464;11.964;2024-02-14T03:02:18;22.80;52.10
46932;DHT22;32670;51.464;11.964;2024-02-14T03:04:44;22.80;52.10
46932;DHT22;32670;51.464;11.964;2024-02-14T03:07:10;22.80;52.20
46932;DHT22;32670;51.464;11.964;2024-02-14T03:09:36;22.80;52.10
46932;DHT22;32670;51.464;11.964;2024-02-14T03:12:05;22.80;52.10
46932;DHT22;32670;51.464;11.964;2024-02-14T03:14:31;22.80;52.10
46932;DHT22;32670;51.464;11.964;2024-02-14T03:16:59;22.80;52.10
46932;DHT22;32670;51.464;11.964;2024-02-14T03:19:25;22.80;52.10
46932;DHT22;32670;51.464;11.964;2024-02-14T03:21:52;22.80;52.20
46932;DHT22;32670;51.464;11.964;2024-02-14T03:24:18;22.80;52.20
46932;DHT22;32670;51.464;11.964;2024-02-14T03:26:43;22.80;52.50
46932;DHT22;32670;51.464;11.964;2024-02-14T03:29:09;22.80;52.40
46932;DHT22;32670;51.464;11.964;2024-02-14T03:31:35;22.90;51.90
46932;DHT22;32670;51.464;11.964;2024-02-14T03:34:01;22.80;51.90
46932;DHT22;32670;51.464;11.964;2024-02-14T03:36:27;22.90;52.00
46932;DHT22;32670;51.464;11.964;2024-02-14T03:38:56;22.90;52.20
46932;DHT22;32670;51.464;11.964;2024-02-14T03:41:22;22.90;52.20
46932;DHT22;32670;51.464;11.964;2024-02-14T03:43:47;22.80;52.10
46932;DHT22;32670;51.464;11.964;2024-02-14T03:46:14;22.80;52.10
46932;DHT22;32670;51.464;11.964;2024-02-14T03:48:40;22.90;52.20
46932;DHT22;32670;51.464;11.964;2024-02-14T03:51:08;22.90;52.30
46932;DHT22;32670;51.464;11.964;2024-02-14T03:53:34;22.90;52.20
46932;DHT22;32670;51.464;11.964;2024-02-14T03:55:59;22.90;52.20
46932;DHT22;32670;51.464;11.964;2024-02-14T03:58:24;22.90;52.20
46932;DHT22;32670;51.464;11.964;2024-02-14T04:00:50;22.80;52.10
46932;DHT22;32670;51.464;11.964;2024-02-14T04:03:16;22.90;52.30
46932;DHT22;32670;51.464;11.964;2024-02-14T04:05:43;22.80;52.40
46932;DHT22;32670;51.464;11.964;2024-02-14T04:08:08;22.80;52.40
46932;DHT22;32670;51.464;11.964;2024-02-14T04:10:36;22.90;52.50
46932;DHT22;32670;51.464;11.964;2024-02-14T04:13:03;22.80;52.50
46932;DHT22;32670;51.464;11.964;2024-02-14T04:15:29;22.80;52.40
46932;DHT22;32670;51.464;11.964;2024-02-14T04:17:54;22.80;52.50
46932;DHT22;32670;51.464;11.964;2024-02-14T04:20:20;22.80;52.60
46932;DHT22;32670;51.464;11.964;2024-02-14T04:22:45;22.80;52.60
46932;DHT22;32670;51.464;11.964;2024-02-14T04:25:11;22.80;52.60
46932;DHT22;32670;51.464;11.964;2024-02-14T04:27:37;22.80;52.70
46932;DHT22;32670;51.464;11.964;2024-02-14T04:30:04;22.80;52.60
46932;DHT22;32670;51.464;11.964;2024-02-14T04:32:29;22.80;52.80
46932;DHT22;32670;51.464;11.964;2024-02-14T04:34:55;22.80;52.80
46932;DHT22;32670;51.464;11.964;2024-02-14T04:37:21;22.80;52.70
46932;DHT22;32670;51.464;11.964;2024-02-14T04:39:47;22.80;52.70
46932;DHT22;32670;51.464;11.964;2024-02-14T04:42:12;22.80;52.70
46932;DHT22;32670;51.464;11.964;2024-02-14T04:44:38;22.80;52.90
46932;DHT22;32670;51.464;11.964;2024-02-14T04:47:04;22.80;52.80
46932;DHT22;32670;51.464;11.964;2024-02-14T04:49:30;22.80;52.70
46932;DHT22;32670;51.464;11.964;2024-02-14T04:51:56;22.80;52.70
46932;DHT22;32670;51.464;11.964;2024-02-14T04:54:21;22.80;52.70
46932;DHT22;32670;51.464;11.964;2024-02-14T04:56:47;22.80;52.90
46932;DHT22;32670;51.464;11.964;2024-02-14T04:59:12;22.90;53.00
46932;DHT22;32670;51.464;11.964;2024-02-14T05:01:38;22.90;53.10
46932;DHT22;32670;51.464;11.964;2024-02-14T05:04:07;22.80;53.20
46932;DHT22;32670;51.464;11.964;2024-02-14T05:06:33;22.90;53.20
46932;DHT22;32670;51.464;11.964;2024-02-14T05:08:58;22.90;53.20
46932;DHT22;32670;51.464;11.964;2024-02-14T05:11:24;22.90;53.20
46932;DHT22;32670;51.464;11.964;2024-02-14T05:13:50;22.90;53.20
46932;DHT22;32670;51.464;11.964;2024-02-14T05:16:22;22.90;53.20
46932;DHT22;32670;51.464;11.964;2024-02-14T05:18:48;22.90;53.30
46932;DHT22;32670;51.464;11.964;2024-02-14T05:21:14;22.90;53.20
46932;DHT22;32670;51.464;11.964;2024-02-14T05:23:39;22.90;53.30
46932;DHT22;32670;51.464;11.964;2024-02-14T05:26:05;22.90;53.40
46932;DHT22;32670;51.464;11.964;2024-02-14T05:28:31;22.90;53.20
46932;DHT22;32670;51.464;11.964;2024-02-14T05:30:57;22.90;53.40
46932;DHT22;32670;51.464;11.964;2024-02-14T05:33:23;22.90;53.20
46932;DHT22;32670;51.464;11.964;2024-02-14T05:35:49;23.00;53.40
46932;DHT22;32670;51.464;11.964;2024-02-14T05:38:14;23.00;53.40
46932;DHT22;32670;51.464;11.964;2024-02-14T05:40:40;23.00;53.30
46932;DHT22;32670;51.464;11.964;2024-02-14T05:43:09;23.00;54.00
46932;DHT22;32670;51.464;11.964;2024-02-14T05:45:35;23.00;53.50
46932;DHT22;32670;51.464;11.964;2024-02-14T05:48:00;23.00;53.40
46932;DHT22;32670;51.464;11.964;2024-02-14T05:50:26;23.00;53.20
46932;DHT22;32670;51.464;11.964;2024-02-14T05:52:51;23.00;53.40
46932;DHT22;32670;51.464;11.964;2024-02-14T05:55:17;23.00;53.50
46932;DHT22;32670;51.464;11.964;2024-02-14T05:57:43;23.00;53.50
46932;DHT22;32670;51.464;11.964;2024-02-14T06:00:09;23.00;53.40
46932;DHT22;32670;51.464;11.964;2024-02-14T06:02:35;22.90;53.40
46932;DHT22;32670;51.464;11.964;2024-02-14T06:05:01;23.00;53.40
46932;DHT22;32670;51.464;11.964;2024-02-14T06:07:27;23.00;53.70
46932;DHT22;32670;51.464;11.964;2024-02-14T06:09:53;23.00;53.60
46932;DHT22;32670;51.464;11.964;2024-02-14T06:12:19;23.00;53.50
46932;DHT22;32670;51.464;11.964;2024-02-14T06:14:47;23.00;53.60
46932;DHT22;32670;51.464;11.964;2024-02-14T06:17:12;23.00;53.80
46932;DHT22;32670;51.464;11.964;2024-02-14T06:19:38;23.00;53.20
46932;DHT22;32670;51.464;11.964;2024-02-14T06:22:04;23.00;53.20
46932;DHT22;32670;51.464;11.964;2024-02-14T06:24:29;23.00;53.30
46932;DHT22;32670;51.464;11.964;2024-02-14T06:26:55;23.00;53.30
46932;DHT22;32670;51.464;11.964;2024-02-14T06:29:20;23.00;53.40
46932;DHT22;32670;51.464;11.964;2024-02-14T06:31:46;23.00;53.50
46932;DHT22;32670;51.464;11.964;2024-02-14T06:34:12;23.00;53.70
46932;DHT22;32670;51.464;11.964;2024-02-14T06:36:38;23.00;53.90
46932;DHT22;32670;51.464;11.964;2024-02-14T06:39:04;23.00;54.60
46932;DHT22;32670;51.464;11.964;2024-02-14T06:41:31;23.00;53.70
46932;DHT22;32670;51.464;11.964;2024-02-14T06:43:57;23.00;53.40
46932;DHT22;32670;51.464;11.964;2024-02-14T06:46:22;23.00;52.70
46932;DHT22;32670;51.464;11.964;2024-02-14T06:48:48;23.00;50.90
46932;DHT22;32670;51.464;11.964;2024-02-14T06:51:13;23.00;50.50
46932;DHT22;32670;51.464;11.964;2024-02-14T06:53:39;22.90;49.60
46932;DHT22;32670;51.464;11.964;2024-02-14T06:56:04;22.80;47.40
46932;DHT22;32670;51.464;11.964;2024-02-14T06:58:30;22.70;46.00
46932;DHT22;32670;51.464;11.964;2024-02-14T07:00:56;22.60;44.90
46932;DHT22;32670;51.464;11.964;2024-02-14T07:03:21;22.60;45.30
46932;DHT22;32670;51.464;11.964;2024-02-14T07:05:47;22.60;44.80
46932;DHT22;32670;51.464;11.964;2024-02-14T07:08:12;22.60;44.70
46932;DHT22;32670;51.464;11.964;2024-02-14T07:10:38;22.50;44.10
46932;DHT22;32670;51.464;11.964;2024-02-14T07:13:03;22.50;43.60
46932;DHT22;32670;51.464;11.964;2024-02-14T07:15:29;22.50;44.40
46932;DHT22;32670;51.464;11.964;2024-02-14T07:17:55;22.50;44.00
46932;DHT22;32670;51.464;11.964;2024-02-14T07:20:21;22.50;43.70
46932;DHT22;32670;51.464;11.964;2024-02-14T07:22:47;22.50;43.70
46932;DHT22;32670;51.464;11.964;2024-02-14T07:25:13;22.50;43.70
46932;DHT22;32670;51.464;11.964;2024-02-14T07:27:39;22.40;43.20
46932;DHT22;32670;51.464;11.964;2024-02-14T07:30:05;22.50;43.50
46932;DHT22;32670;51.464;11.964;2024-02-14T07:32:31;22.40;43.80
46932;DHT22;32670;51.464;11.964;2024-02-14T07:34:56;22.40;43.50
46932;DHT22;32670;51.464;11.964;2024-02-14T07:37:22;22.40;43.60
46932;DHT22;32670;51.464;11.964;2024-02-14T07:39:47;22.40;43.70
46932;DHT22;32670;51.464;11.964;2024-02-14T07:42:13;22.40;43.90
46932;DHT22;32670;51.464;11.964;2024-02-14T07:44:39;22.40;44.00
46932;DHT22;32670;51.464;11.964;2024-02-14T07:47:04;22.40;44.00
46932;DHT22;32670;51.464;11.964;2024-02-14T07:49:30;22.40;43.90
46932;DHT22;32670;51.464;11.964;2024-02-14T07:51:56;22.40;43.80
46932;DHT22;32670;51.464;11.964;2024-02-14T07:54:21;22.40;43.70
46932;DHT22;32670;51.464;11.964;2024-02-14T07:56:46;22.40;43.70
46932;DHT22;32670;51.464;11.964;2024-02-14T07:59:12;22.30;43.80
46932;DHT22;32670;51.464;11.964;2024-02-14T08:01:37;22.40;43.70
46932;DHT22;32670;51.464;11.964;2024-02-14T08:04:03;22.40;43.70
46932;DHT22;32670;51.464;11.964;2024-02-14T08:06:30;22.30;43.60
46932;DHT22;32670;51.464;11.964;2024-02-14T08:08:55;22.30;43.50
46932;DHT22;32670;51.464;11.964;2024-02-14T08:11:27;22.30;43.50
46932;DHT22;32670;51.464;11.964;2024-02-14T08:13:52;22.30;43.60
46932;DHT22;32670;51.464;11.964;2024-02-14T08:16:17;22.20;43.50
46932;DHT22;32670;51.464;11.964;2024-02-14T08:18:43;22.20;43.50
46932;DHT22;32670;51.464;11.964;2024-02-14T08:21:09;22.30;43.50
46932;DHT22;32670;51.464;11.964;2024-02-14T08:23:35;22.30;43.50
46932;DHT22;32670;51.464;11.964;2024-02-14T08:26:04;22.20;43.50
46932;DHT22;32670;51.464;11.964;2024-02-14T08:28:38;22.20;43.50
46932;DHT22;32670;51.464;11.964;2024-02-14T08:31:10;22.20;43.40
46932;DHT22;32670;51.464;11.964;2024-02-14T08:33:36;22.20;43.60
46932;DHT22;32670;51.464;11.964;2024-02-14T08:36:03;22.20;43.60
46932;DHT22;32670;51.464;11.964;2024-02-14T08:38:28;22.20;43.70
46932;DHT22;32670;51.464;11.964;2024-02-14T08:40:54;22.20;43.70
46932;DHT22;32670;51.464;11.964;2024-02-14T08:43:19;22.20;43.60
46932;DHT22;32670;51.464;11.964;2024-02-14T08:45:45;22.20;43.70
46932;DHT22;32670;51.464;11.964;2024-02-14T08:48:10;22.20;43.70
46932;DHT22;32670;51.464;11.964;2024-02-14T08:50:36;22.20;43.80
46932;DHT22;32670;51.464;11.964;2024-02-14T08:53:01;22.20;43.70
46932;DHT22;32670;51.464;11.964;2024-02-14T08:55:27;22.20;43.90
46932;DHT22;32670;51.464;11.964;2024-02-14T08:57:53;22.20;45.80
46932;DHT22;32670;51.464;11.964;2024-02-14T09:00:18;22.20;44.80
46932;DHT22;32670;51.464;11.964;2024-02-14T09:02:45;22.30;44.60
46932;DHT22;32670;51.464;11.964;2024-02-14T09:05:12;22.30;44.30
46932;DHT22;32670;51.464;11.964;2024-02-14T09:07:38;22.30;44.20
46932;DHT22;32670;51.464;11.964;2024-02-14T09:10:03;22.20;44.20
46932;DHT22;32670;51.464;11.964;2024-02-14T09:12:30;22.20;44.30
46932;DHT22;32670;51.464;11.964;2024-02-14T09:14:57;22.30;44.30
46932;DHT22;32670;51.464;11.964;2024-02-14T09:17:22;22.20;44.30
46932;DHT22;32670;51.464;11.964;2024-02-14T09:19:48;22.20;44.30
46932;DHT22;32670;51.464;11.964;2024-02-14T09:22:13;22.20;44.80
46932;DHT22;32670;51.464;11.964;2024-02-14T09:24:43;22.20;44.50
46932;DHT22;32670;51.464;11.964;2024-02-14T09:27:09;22.20;44.40
46932;DHT22;32670;51.464;11.964;2024-02-14T09:29:34;22.20;43.90
46932;DHT22;32670;51.464;11.964;2024-02-14T09:32:02;22.20;43.40
46932;DHT22;32670;51.464;11.964;2024-02-14T09:34:28;22.20;43.20
46932;DHT22;32670;51.464;11.964;2024-02-14T09:36:54;22.20;43.40
46932;DHT22;32670;51.464;11.964;2024-02-14T09:39:21;22.20;43.40
46932;DHT22;32670;51.464;11.964;2024-02-14T09:41:51;22.20;43.00
46932;DHT22;32670;51.464;11.964;2024-02-14T09:44:21;22.20;43.50
46932;DHT22;32670;51.464;11.964;2024-02-14T09:46:47;22.30;43.70
46932;DHT22;32670;51.464;11.964;2024-02-14T09:49:14;22.30;43.90
46932;DHT22;32670;51.464;11.964;2024-02-14T09:51:43;22.20;43.80
46932;DHT22;32670;51.464;11.964;2024-02-14T09:54:09;22.20;43.90
46932;DHT22;32670;51.464;11.964;2024-02-14T09:56:35;22.30;44.00
46932;DHT22;32670;51.464;11.964;2024-02-14T09:59:02;22.30;44.00
46932;DHT22;32670;51.464;11.964;2024-02-14T10:01:28;22.20;44.10
46932;DHT22;32670;51.464;11.964;2024-02-14T10:03:54;22.20;44.10
46932;DHT22;32670;51.464;11.964;2024-02-14T10:06:20;22.20;44.10
46932;DHT22;32670;51.464;11.964;2024-02-14T10:08:49;22.20;44.20
46932;DHT22;32670;51.464;11.964;2024-02-14T10:11:17;22.30;44.30
46932;DHT22;32670;51.464;11.964;2024-02-14T10:13:44;22.30;44.30
46932;DHT22;32670;51.464;11.964;2024-02-14T10:16:11;22.20;44.30
46932;DHT22;32670;51.464;11.964;2024-02-14T10:18:38;22.30;44.40
46932;DHT22;32670;51.464;11.964;2024-02-14T10:21:04;22.20;44.40
46932;DHT22;32670;51.464;11.964;2024-02-14T10:23:30;22.30;44.40
46932;DHT22;32670;51.464;11.964;2024-02-14T10:25:56;22.30;44.40
46932;DHT22;32670;51.464;11.964;2024-02-14T10:28:22;22.30;44.50
46932;DHT22;32670;51.464;11.964;2024-02-14T10:30:48;22.30;44.50
46932;DHT22;32670;51.464;11.964;2024-02-14T10:33:15;22.30;44.50
46932;DHT22;32670;51.464;11.964;2024-02-14T10:35:41;22.30;44.50
46932;DHT22;32670;51.464;11.964;2024-02-14T10:38:08;22.30;44.50
46932;DHT22;32670;51.464;11.964;2024-02-14T10:40:35;22.20;44.50
46932;DHT22;32670;51.464;11.964;2024-02-14T10:43:01;22.30;44.60
46932;DHT22;32670;51.464;11.964;2024-02-14T10:45:27;22.30;44.60
46932;DHT22;32670;51.464;11.964;2024-02-14T10:47:53;22.30;44.60
46932;DHT22;32670;51.464;11.964;2024-02-14T10:50:24;22.30;44.70
46932;DHT22;32670;51.464;11.964;2024-02-14T10:52:53;22.30;44.70
46932;DHT22;32670;51.464;11.964;2024-02-14T10:55:24;22.20;44.60
46932;DHT22;32670;51.464;11.964;2024-02-14T10:57:55;22.30;44.70
46932;DHT22;32670;51.464;11.964;2024-02-14T11:00:22;22.30;44.80
46932;DHT22;32670;51.464;11.964;2024-02-14T11:02:49;22.30;45.00
46932;DHT22;32670;51.464;11.964;2024-02-14T11:05:16;22.30;44.70
46932;DHT22;32670;51.464;11.964;2024-02-14T11:07:45;22.30;44.70
46932;DHT22;32670;51.464;11.964;2024-02-14T11:10:14;22.30;44.80
46932;DHT22;32670;51.464;11.964;2024-02-14T11:12:41;22.30;44.80
46932;DHT22;32670;51.464;11.964;2024-02-14T11:15:20;22.30;44.80
46932;DHT22;32670;51.464;11.964;2024-02-14T11:17:47;22.30;44.90
46932;DHT22;32670;51.464;11.964;2024-02-14T11:20:30;22.30;44.90
46932;DHT22;32670;51.464;11.964;2024-02-14T11:22:58;22.30;44.90
46932;DHT22;32670;51.464;11.964;2024-02-14T11:25:34;22.30;44.90
46932;DHT22;32670;51.464;11.964;2024-02-14T11:28:17;22.30;44.90
46932;DHT22;32670;51.464;11.964;2024-02-14T11:30:45;22.30;44.90
46932;DHT22;32670;51.464;11.964;2024-02-14T11:33:13;22.30;44.90
46932;DHT22;32670;51.464;11.964;2024-02-14T11:35:41;22.30;44.90
46932;DHT22;32670;51.464;11.964;2024-02-14T11:38:06;22.30;44.90
46932;DHT22;32670;51.464;11.964;2024-02-14T11:40:32;22.30;44.90
46932;DHT22;32670;51.464;11.964;2024-02-14T11:42:58;22.30;45.10
46932;DHT22;32670;51.464;11.964;2024-02-14T11:45:23;22.30;45.10
46932;DHT22;32670;51.464;11.964;2024-02-14T11:47:49;22.30;45.00
46932;DHT22;32670;51.464;11.964;2024-02-14T11:50:17;22.30;45.00
46932;DHT22;32670;51.464;11.964;2024-02-14T11:52:43;22.30;45.00
46932;DHT22;32670;51.464;11.964;2024-02-14T11:55:09;22.30;45.00
46932;DHT22;32670;51.464;11.964;2024-02-14T11:57:35;22.30;45.00
46932;DHT22;32670;51.464;11.964;2024-02-14T12:00:01;22.30;45.00
46932;DHT22;32670;51.464;11.964;2024-02-14T12:02:27;22.30;45.00
46932;DHT22;32670;51.464;11.964;2024-02-14T12:04:54;22.30;45.00
46932;DHT22;32670;51.464;11.964;2024-02-14T12:07:21;22.30;45.10
46932;DHT22;32670;51.464;11.964;2024-02-14T12:09:47;22.30;45.10
46932;DHT22;32670;51.464;11.964;2024-02-14T12:12:15;22.30;45.10
46932;DHT22;32670;51.464;11.964;2024-02-14T12:14:43;22.30;45.10
46932;DHT22;32670;51.464;11.964;2024-02-14T12:17:10;22.30;45.00
46932;DHT22;32670;51.464;11.964;2024-02-14T12:19:35;22.30;45.00
46932;DHT22;32670;51.464;11.964;2024-02-14T12:22:11;22.30;45.10
46932;DHT22;32670;51.464;11.964;2024-02-14T12:24:44;22.30;45.10
46932;DHT22;32670;51.464;11.964;2024-02-14T12:27:09;22.30;45.00
46932;DHT22;32670;51.464;11.964;2024-02-14T12:29:35;22.40;45.10
46932;DHT22;32670;51.464;11.964;2024-02-14T12:32:07;22.30;45.10
46932;DHT22;32670;51.464;11.964;2024-02-14T12:34:33;22.30;45.60
46932;DHT22;32670;51.464;11.964;2024-02-14T12:36:59;22.30;45.10
46932;DHT22;32670;51.464;11.964;2024-02-14T12:39:29;22.30;45.10
46932;DHT22;32670;51.464;11.964;2024-02-14T12:41:54;22.30;45.10
46932;DHT22;32670;51.464;11.964;2024-02-14T12:44:20;22.40;45.40
46932;DHT22;32670;51.464;11.964;2024-02-14T12:46:46;22.30;45.40
46932;DHT22;32670;51.464;11.964;2024-02-14T12:49:11;22.30;45.30
46932;DHT22;32670;51.464;11.964;2024-02-14T12:51:37;22.30;45.20
46932;DHT22;32670;51.464;11.964;2024-02-14T12:54:04;22.30;45.20
46932;DHT22;32670;51.464;11.964;2024-02-14T12:56:30;22.40;45.30
46932;DHT22;32670;51.464;11.964;2024-02-14T12:58:57;22.40;45.20
46932;DHT22;32670;51.464;11.964;2024-02-14T13:01:22;22.30;45.20
46932;DHT22;32670;51.464;11.964;2024-02-14T13:03:48;22.30;45.20
46932;DHT22;32670;51.464;11.964;2024-02-14T13:06:13;22.30;45.20
46932;DHT22;32670;51.464;11.964;2024-02-14T13:08:42;22.30;45.20
46932;DHT22;32670;51.464;11.964;2024-02-14T13:11:07;22.40;45.20
46932;DHT22;32670;51.464;11.964;2024-02-14T13:13:36;22.30;45.20
46932;DHT22;32670;51.464;11.964;2024-02-14T13:16:01;22.40;45.30
46932;DHT22;32670;51.464;11.964;2024-02-14T13:18:27;22.30;45.20
46932;DHT22;32670;51.464;11.964;2024-02-14T13:20:52;22.40;45.90
46932;DHT22;32670;51.464;11.964;2024-02-14T13:23:27;22.40;45.20
46932;DHT22;32670;51.464;11.964;2024-02-14T13:25:53;22.40;45.20
46932;DHT22;32670;51.464;11.964;2024-02-14T13:28:18;22.40;45.20
46932;DHT22;32670;51.464;11.964;2024-02-14T13:30:44;22.30;45.20
46932;DHT22;32670;51.464;11.964;2024-02-14T13:33:13;22.30;45.20
46932;DHT22;32670;51.464;11.964;2024-02-14T13:35:38;22.30;45.20
46932;DHT22;32670;51.464;11.964;2024-02-14T13:38:05;22.40;45.20
46932;DHT22;32670;51.464;11.964;2024-02-14T13:40:31;22.30;45.20
46932;DHT22;32670;51.464;11.964;2024-02-14T13:42:57;22.40;45.20
46932;DHT22;32670;51.464;11.964;2024-02-14T13:45:23;22.30;45.20
46932;DHT22;32670;51.464;11.964;2024-02-14T13:47:49;22.30;45.20
46932;DHT22;32670;51.464;11.964;2024-02-14T13:50:14;22.30;45.20
46932;DHT22;32670;51.464;11.964;2024-02-14T13:52:40;22.40;45.30
46932;DHT22;32670;51.464;11.964;2024-02-14T13:55:05;22.30;45.20
46932;DHT22;32670;51.464;11.964;2024-02-14T13:57:37;22.30;45.20
46932;DHT22;32670;51.464;11.964;2024-02-14T14:00:08;22.30;45.20
46932;DHT22;32670;51.464;11.964;2024-02-14T14:02:37;22.30;45.30
46932;DHT22;32670;51.464;11.964;2024-02-14T14:05:07;22.30;45.20
46932;DHT22;32670;51.464;11.964;2024-02-14T14:07:35;22.40;45.30
46932;DHT22;32670;51.464;11.964;2024-02-14T14:10:02;22.30;45.20
46932;DHT22;32670;51.464;11.964;2024-02-14T14:12:28;22.30;45.20
46932;DHT22;32670;51.464;11.964;2024-02-14T14:14:53;22.30;45.20
46932;DHT22;32670;51.464;11.964;2024-02-14T14:17:19;22.30;45.20
46932;DHT22;32670;51.464;11.964;2024-02-14T14:19:45;22.30;45.20
46932;DHT22;32670;51.464;11.964;2024-02-14T14:22:10;22.40;45.30
46932;DHT22;32670;51.464;11.964;2024-02-14T14:24:36;22.30;45.30
46932;DHT22;32670;51.464;11.964;2024-02-14T14:27:01;22.40;45.30
46932;DHT22;32670;51.464;11.964;2024-02-14T14:29:27;22.30;45.90
46932;DHT22;32670;51.464;11.964;2024-02-14T14:31:53;22.30;46.00
46932;DHT22;32670;51.464;11.964;2024-02-14T14:34:19;22.40;45.70
46932;DHT22;32670;51.464;11.964;2024-02-14T14:36:45;22.40;45.70
46932;DHT22;32670;51.464;11.964;2024-02-14T14:39:10;22.40;45.70
46932;DHT22;32670;51.464;11.964;2024-02-14T14:41:37;22.40;45.60
46932;DHT22;32670;51.464;11.964;2024-02-14T14:44:03;22.40;45.50
46932;DHT22;32670;51.464;11.964;2024-02-14T14:46:28;22.40;45.50
46932;DHT22;32670;51.464;11.964;2024-02-14T14:48:56;22.30;45.60
46932;DHT22;32670;51.464;11.964;2024-02-14T14:51:21;22.40;45.70
46932;DHT22;32670;51.464;11.964;2024-02-14T14:53:47;22.30;45.50
46932;DHT22;32670;51.464;11.964;2024-02-14T14:56:12;22.30;45.50
46932;DHT22;32670;51.464;11.964;2024-02-14T14:58:38;22.40;45.50
46932;DHT22;32670;51.464;11.964;2024-02-14T15:01:05;22.40;45.50
46932;DHT22;32670;51.464;11.964;2024-02-14T15:03:31;22.30;45.40
46932;DHT22;32670;51.464;11.964;2024-02-14T15:05:56;22.30;45.40
46932;DHT22;32670;51.464;11.964;2024-02-14T15:08:22;22.40;45.50
46932;DHT22;32670;51.464;11.964;2024-02-14T15:10:52;22.40;45.50